Time,TemperatureF,DewpointF,PressureIn,WindDirection,WindDirectionDegrees,WindSpeedMPH,WindSpeedGustMPH,Humidity,HourlyPrecipIn,Conditions,Clouds,dailyrainin,SolarRadiationWatts/m^2,SoftwareType,DateUTC
2013-05-24 00:21:00,49.0,27.0,-100.00,ENE,70,10.0,17.0,42,0.00,,,0.00,0.000000,,2013-05-24 06:21:00,
2013-05-24 00:32:00,49.0,27.0,-100.00,ENE,70,10.0,17.0,42,0.00,,,0.00,0.000000,,2013-05-24 06:32:00,
2013-05-24 00:42:00,49.0,27.0,-100.00,ENE,70,10.0,17.0,42,0.00,,,0.00,0.000000,,2013-05-24 06:42:00,
2013-05-24 00:52:00,49.0,27.0,-100.00,ENE,70,10.0,17.0,42,0.00,,,0.00,0.000000,,2013-05-24 06:52:00,
2013-05-24 01:22:00,47.0,29.0,-100.00,ENE,75,8.0,17.0,49,0.00,,,0.00,0.000000,,2013-05-24 07:22:00,
2013-05-24 01:32:00,47.0,29.0,-100.00,ENE,75,8.0,17.0,49,0.00,,,0.00,0.000000,,2013-05-24 07:32:00,
2013-05-24 01:42:00,47.0,29.0,-100.00,ENE,75,8.0,17.0,49,0.00,,,0.00,0.000000,,2013-05-24 07:42:00,
2013-05-24 01:52:00,47.0,29.0,-100.00,ENE,75,8.0,17.0,49,0.00,,,0.00,0.000000,,2013-05-24 07:52:00,
2013-05-24 02:22:00,45.0,30.0,-100.00,ENE,72,9.0,15.0,56,0.00,,,0.00,0.000000,,2013-05-24 08:22:00,
2013-05-24 02:33:00,45.0,30.0,-100.00,ENE,72,9.0,15.0,56,0.00,,,0.00,0.000000,,2013-05-24 08:33:00,
2013-05-24 02:42:00,45.0,30.0,-100.00,ENE,72,9.0,15.0,56,0.00,,,0.00,0.000000,,2013-05-24 08:42:00,
2013-05-24 02:52:00,45.0,30.0,-100.00,ENE,72,9.0,15.0,56,0.00,,,0.00,0.000000,,2013-05-24 08:52:00,
2013-05-24 03:21:00,42.0,31.0,-100.00,ENE,70,7.0,14.0,66,0.00,,,0.00,0.000000,,2013-05-24 09:21:00,
2013-05-24 03:32:00,42.0,31.0,-100.00,ENE,70,7.0,14.0,66,0.00,,,0.00,0.000000,,2013-05-24 09:32:00,
2013-05-24 03:42:00,42.0,31.0,-100.00,ENE,70,7.0,14.0,66,0.00,,,0.00,0.000000,,2013-05-24 09:42:00,
2013-05-24 03:52:00,42.0,31.0,-100.00,ENE,70,7.0,14.0,66,0.00,,,0.00,0.000000,,2013-05-24 09:52:00,
2013-05-24 04:22:00,42.0,31.0,-100.00,ENE,70,9.0,16.0,64,0.00,,,0.00,0.000000,,2013-05-24 10:22:00,
2013-05-24 04:33:00,42.0,31.0,-100.00,ENE,70,9.0,16.0,64,0.00,,,0.00,0.000000,,2013-05-24 10:33:00,
2013-05-24 04:42:00,42.0,31.0,-100.00,ENE,70,9.0,16.0,64,0.00,,,0.00,0.000000,,2013-05-24 10:42:00,
2013-05-24 04:52:00,42.0,31.0,-100.00,ENE,70,9.0,16.0,64,0.00,,,0.00,0.000000,,2013-05-24 10:52:00,
2013-05-24 05:22:00,41.0,31.0,-100.00,East,82,8.0,15.0,68,0.00,,,0.00,0.000000,,2013-05-24 11:22:00,
2013-05-24 05:32:00,41.0,31.0,-100.00,East,82,8.0,15.0,68,0.00,,,0.00,0.000000,,2013-05-24 11:32:00,
2013-05-24 05:42:00,41.0,31.0,-100.00,East,82,8.0,15.0,68,0.00,,,0.00,0.000000,,2013-05-24 11:42:00,
2013-05-24 05:51:00,41.0,31.0,-100.00,East,82,8.0,15.0,68,0.00,,,0.00,0.000000,,2013-05-24 11:51:00,
2013-05-24 06:21:00,40.0,30.0,-100.00,ENE,72,9.0,16.0,67,0.00,,,0.00,2.000000,,2013-05-24 12:21:00,
2013-05-24 06:32:00,40.0,30.0,-100.00,ENE,72,9.0,16.0,67,0.00,,,0.00,2.000000,,2013-05-24 12:32:00,
2013-05-24 06:42:00,40.0,30.0,-100.00,ENE,72,9.0,16.0,67,0.00,,,0.00,2.000000,,2013-05-24 12:42:00,
2013-05-24 06:52:00,40.0,30.0,-100.00,ENE,72,9.0,16.0,67,0.00,,,0.00,2.000000,,2013-05-24 12:52:00,
2013-05-24 07:21:00,42.0,29.0,-100.00,ENE,74,8.0,14.0,59,0.00,,,0.00,46.000000,,2013-05-24 13:21:00,
2013-05-24 07:32:00,42.0,29.0,-100.00,ENE,74,8.0,14.0,59,0.00,,,0.00,46.000000,,2013-05-24 13:32:00,
2013-05-24 07:42:00,42.0,29.0,-100.00,ENE,74,8.0,14.0,59,0.00,,,0.00,46.000000,,2013-05-24 13:42:00,
2013-05-24 07:52:00,42.0,29.0,-100.00,ENE,74,8.0,14.0,59,0.00,,,0.00,46.000000,,2013-05-24 13:52:00,
2013-05-24 08:21:00,46.0,28.0,-100.00,ESE,103,6.0,11.0,50,0.00,,,0.00,251.000000,,2013-05-24 14:21:00,
2013-05-24 08:32:00,46.0,28.0,-100.00,ESE,103,6.0,11.0,50,0.00,,,0.00,251.000000,,2013-05-24 14:32:00,
2013-05-24 08:42:00,46.0,28.0,-100.00,ESE,103,6.0,11.0,50,0.00,,,0.00,251.000000,,2013-05-24 14:42:00,
2013-05-24 08:52:00,46.0,28.0,-100.00,ESE,103,6.0,11.0,50,0.00,,,0.00,251.000000,,2013-05-24 14:52:00,
2013-05-24 09:21:00,53.0,27.0,-100.00,ENE,75,4.0,10.0,36,0.00,,,0.00,450.000000,,2013-05-24 15:21:00,
2013-05-24 09:33:00,53.0,27.0,-100.00,ENE,75,4.0,10.0,36,0.00,,,0.00,450.000000,,2013-05-24 15:33:00,
2013-05-24 09:43:00,53.0,27.0,-100.00,ENE,75,4.0,10.0,36,0.00,,,0.00,450.000000,,2013-05-24 15:43:00,
2013-05-24 09:52:00,53.0,27.0,-100.00,ENE,75,4.0,10.0,36,0.00,,,0.00,450.000000,,2013-05-24 15:52:00,
2013-05-24 10:22:00,58.0,18.0,-100.00,West,271,4.0,14.0,21,0.00,,,0.00,644.000000,,2013-05-24 16:22:00,
2013-05-24 10:32:00,58.0,18.0,-100.00,West,271,4.0,14.0,21,0.00,,,0.00,644.000000,,2013-05-24 16:32:00,
2013-05-24 10:42:00,58.0,18.0,-100.00,West,271,4.0,14.0,21,0.00,,,0.00,644.000000,,2013-05-24 16:42:00,
2013-05-24 10:52:00,58.0,18.0,-100.00,West,271,4.0,14.0,21,0.00,,,0.00,644.000000,,2013-05-24 16:52:00,
2013-05-24 11:22:00,61.0,18.0,-100.00,WNW,285,8.0,16.0,19,0.00,,,0.00,817.000000,,2013-05-24 17:22:00,
2013-05-24 11:32:00,61.0,18.0,-100.00,WNW,285,8.0,16.0,19,0.00,,,0.00,817.000000,,2013-05-24 17:32:00,
2013-05-24 11:42:00,61.0,18.0,-100.00,WNW,285,8.0,16.0,19,0.00,,,0.00,817.000000,,2013-05-24 17:42:00,
2013-05-24 11:52:00,61.0,18.0,-100.00,WNW,285,8.0,16.0,19,0.00,,,0.00,817.000000,,2013-05-24 17:52:00,
2013-05-24 12:21:00,63.0,15.0,-100.00,West,280,11.0,21.0,15,0.00,,,0.00,942.000000,,2013-05-24 18:21:00,
2013-05-24 12:32:00,63.0,15.0,-100.00,West,280,11.0,21.0,15,0.00,,,0.00,942.000000,,2013-05-24 18:32:00,
2013-05-24 12:42:00,63.0,15.0,-100.00,West,280,11.0,21.0,15,0.00,,,0.00,942.000000,,2013-05-24 18:42:00,
2013-05-24 12:51:00,63.0,15.0,-100.00,West,280,11.0,21.0,15,0.00,,,0.00,942.000000,,2013-05-24 18:51:00,
2013-05-24 13:21:00,65.0,18.0,-100.00,West,263,11.0,19.0,16,0.00,,,0.00,1021.000000,,2013-05-24 19:21:00,
2013-05-24 13:32:00,65.0,18.0,-100.00,West,263,11.0,19.0,16,0.00,,,0.00,1021.000000,,2013-05-24 19:32:00,
2013-05-24 13:42:00,65.0,18.0,-100.00,West,263,11.0,19.0,16,0.00,,,0.00,1021.000000,,2013-05-24 19:42:00,
2013-05-24 13:52:00,65.0,18.0,-100.00,West,263,11.0,19.0,16,0.00,,,0.00,1021.000000,,2013-05-24 19:52:00,
2013-05-24 14:21:00,66.0,8.0,-100.00,West,261,17.0,26.0,10,0.00,,,0.00,1037.000000,,2013-05-24 20:21:00,
2013-05-24 14:32:00,66.0,8.0,-100.00,West,261,17.0,26.0,10,0.00,,,0.00,1037.000000,,2013-05-24 20:32:00,
2013-05-24 14:42:00,66.0,8.0,-100.00,West,261,17.0,26.0,10,0.00,,,0.00,1037.000000,,2013-05-24 20:42:00,
2013-05-24 14:52:00,66.0,8.0,-100.00,West,261,17.0,26.0,10,0.00,,,0.00,1037.000000,,2013-05-24 20:52:00,
2013-05-24 15:21:00,67.0,11.0,-100.00,West,260,18.0,31.0,11,0.00,,,0.00,989.000000,,2013-05-24 21:21:00,
2013-05-24 15:33:00,67.0,11.0,-100.00,West,260,18.0,31.0,11,0.00,,,0.00,989.000000,,2013-05-24 21:33:00,
2013-05-24 15:42:00,67.0,11.0,-100.00,West,260,18.0,31.0,11,0.00,,,0.00,989.000000,,2013-05-24 21:42:00,
2013-05-24 15:53:00,67.0,11.0,-100.00,West,260,18.0,31.0,11,0.00,,,0.00,989.000000,,2013-05-24 21:53:00,
2013-05-24 16:22:00,67.0,13.0,-100.00,West,261,16.0,34.0,12,0.00,,,0.00,924.000000,,2013-05-24 22:22:00,
2013-05-24 16:33:00,67.0,13.0,-100.00,West,261,16.0,34.0,12,0.00,,,0.00,924.000000,,2013-05-24 22:33:00,
2013-05-24 16:42:00,67.0,13.0,-100.00,West,261,16.0,34.0,12,0.00,,,0.00,924.000000,,2013-05-24 22:42:00,
2013-05-24 16:52:00,67.0,13.0,-100.00,West,261,16.0,34.0,12,0.00,,,0.00,924.000000,,2013-05-24 22:52:00,
2013-05-24 17:22:00,65.0,13.0,-100.00,West,265,12.0,31.0,13,0.00,,,0.00,569.000000,,2013-05-24 23:22:00,
2013-05-24 17:32:00,65.0,13.0,-100.00,West,265,12.0,31.0,13,0.00,,,0.00,569.000000,,2013-05-24 23:32:00,
2013-05-24 17:42:00,65.0,13.0,-100.00,West,265,12.0,31.0,13,0.00,,,0.00,569.000000,,2013-05-24 23:42:00,
2013-05-24 17:52:00,65.0,13.0,-100.00,West,265,12.0,31.0,13,0.00,,,0.00,569.000000,,2013-05-24 23:52:00,
2013-05-24 18:21:00,64.0,14.0,-100.00,West,263,14.0,23.0,14,0.00,,,0.00,340.000000,,2013-05-25 00:21:00,
2013-05-24 18:32:00,64.0,14.0,-100.00,West,263,14.0,23.0,14,0.00,,,0.00,340.000000,,2013-05-25 00:32:00,
2013-05-24 18:42:00,64.0,14.0,-100.00,West,263,14.0,23.0,14,0.00,,,0.00,340.000000,,2013-05-25 00:42:00,
2013-05-24 18:51:00,64.0,14.0,-100.00,West,263,14.0,23.0,14,0.00,,,0.00,340.000000,,2013-05-25 00:51:00,
2013-05-24 19:22:00,64.0,14.0,-100.00,West,261,13.0,24.0,14,0.00,,,0.00,321.000000,,2013-05-25 01:22:00,
2013-05-24 19:32:00,64.0,14.0,-100.00,West,261,13.0,24.0,14,0.00,,,0.00,321.000000,,2013-05-25 01:32:00,
2013-05-24 19:42:00,64.0,14.0,-100.00,West,261,13.0,24.0,14,0.00,,,0.00,321.000000,,2013-05-25 01:42:00,
2013-05-24 19:52:00,64.0,14.0,-100.00,West,261,13.0,24.0,14,0.00,,,0.00,321.000000,,2013-05-25 01:52:00,
2013-05-24 20:21:00,59.0,16.0,-100.00,WNW,282,6.0,19.0,18,0.00,,,0.00,117.000000,,2013-05-25 02:21:00,
2013-05-24 20:32:00,59.0,16.0,-100.00,WNW,282,6.0,19.0,18,0.00,,,0.00,117.000000,,2013-05-25 02:32:00,
2013-05-24 20:42:00,59.0,16.0,-100.00,WNW,282,6.0,19.0,18,0.00,,,0.00,117.000000,,2013-05-25 02:42:00,
2013-05-24 20:51:00,59.0,16.0,-100.00,WNW,282,6.0,19.0,18,0.00,,,0.00,117.000000,,2013-05-25 02:51:00,
2013-05-24 21:21:00,54.0,15.0,-100.00,West,281,3.0,9.0,21,0.00,,,0.00,7.000000,,2013-05-25 03:21:00,
2013-05-24 21:32:00,54.0,15.0,-100.00,West,281,3.0,9.0,21,0.00,,,0.00,7.000000,,2013-05-25 03:32:00,
2013-05-24 21:43:00,54.0,15.0,-100.00,West,281,3.0,9.0,21,0.00,,,0.00,7.000000,,2013-05-25 03:43:00,
2013-05-24 21:53:00,54.0,15.0,-100.00,West,281,3.0,9.0,21,0.00,,,0.00,7.000000,,2013-05-25 03:53:00,
2013-05-24 22:23:00,51.0,16.0,-100.00,ENE,73,4.0,5.0,25,0.00,,,0.00,0.000000,,2013-05-25 04:23:00,
2013-05-24 22:33:00,51.0,16.0,-100.00,ENE,73,4.0,5.0,25,0.00,,,0.00,0.000000,,2013-05-25 04:33:00,
2013-05-24 22:43:00,51.0,16.0,-100.00,ENE,73,4.0,5.0,25,0.00,,,0.00,0.000000,,2013-05-25 04:43:00,
2013-05-24 22:52:00,51.0,16.0,-100.00,ENE,73,4.0,5.0,25,0.00,,,0.00,0.000000,,2013-05-25 04:52:00,
2013-05-24 23:22:00,47.0,19.0,-100.00,East,92,4.0,7.0,33,0.00,,,-99.99,0.000000,,2013-05-25 05:22:00,
2013-05-24 23:32:00,47.0,19.0,-100.00,East,92,4.0,7.0,33,0.00,,,-99.99,0.000000,,2013-05-25 05:32:00,
2013-05-24 23:43:00,47.0,19.0,-100.00,East,92,4.0,7.0,33,0.00,,,-99.99,0.000000,,2013-05-25 05:43:00,
2013-05-24 23:52:00,47.0,19.0,-100.00,East,92,4.0,7.0,33,0.00,,,-99.99,0.000000,,2013-05-25 05:52:00,